Time;durP1;ratioP1;P1;durP2;ratioP2;P2;SDS_P1;SDS_P2;PMS_P1;PMS_P2;Temp;Humidity;BMP_temperature;BMP_pressure;BME280_temperature;BME280_humidity;BME280_pressure;Samples;Min_cycle;Max_cycle;Signal;HPM_P1;HPM_P2
2022/07/02 00:02:12;;;;;;;;;3.00;3.00;;;;;16.23;60.24;101590.81;5073327;28;45596;-83
2022/07/02 00:04:44;;;;;;;;;3.25;3.25;;;;;16.32;59.90;101612.28;5073486;28;45442;-81
2022/07/02 00:07:09;;;;;;;;;4.00;4.00;;;;;16.20;60.34;101591.63;5055194;28;46115;-84
2022/07/02 00:09:36;;;;;;;;;3.75;3.75;;;;;16.18;60.22;101589.81;5055562;28;45356;-84
2022/07/02 00:12:02;;;;;;;;;3.50;3.25;;;;;16.20;59.99;101602.25;5073828;28;45320;-84
2022/07/02 00:14:27;;;;;;;;;1.75;1.00;;;;;16.22;60.58;101594.34;5062926;28;45549;-82
2022/07/02 00:16:54;;;;;;;;;3.75;3.75;;;;;15.92;60.37;101542.31;5062054;28;45776;-83
2022/07/02 00:19:21;;;;;;;;;2.50;2.50;;;;;16.23;60.16;101599.66;5073772;28;45279;-81
2022/07/02 00:21:47;;;;;;;;;3.00;2.00;;;;;16.11;60.48;101591.41;5073463;28;45684;-82
2022/07/02 00:24:13;;;;;;;;;3.00;3.00;;;;;16.25;60.76;101627.16;5065645;28;46696;-84
2022/07/02 00:26:40;;;;;;;;;2.75;2.75;;;;;16.12;60.80;101609.13;5052984;28;47228;-84
2022/07/02 00:29:14;;;;;;;;;3.50;3.50;;;;;16.19;61.02;101626.97;5052605;28;45678;-82
2022/07/02 00:31:40;;;;;;;;;3.00;3.00;;;;;16.00;61.10;101601.72;5043698;28;45644;-81
2022/07/02 00:34:06;;;;;;;;;4.00;4.00;;;;;16.02;60.87;101600.91;5065266;28;46660;-85
2022/07/02 00:36:32;;;;;;;;;4.00;3.25;;;;;16.08;60.94;101601.94;5053142;28;45422;-81
2022/07/02 00:38:58;;;;;;;;;4.00;3.00;;;;;16.12;60.46;101610.88;5035682;28;45289;-81
2022/07/02 00:41:25;;;;;;;;;3.00;3.00;;;;;16.05;60.98;101596.53;5056695;28;45557;-84
2022/07/02 00:43:50;;;;;;;;;3.50;3.50;;;;;16.16;60.71;101616.31;5056907;28;45675;-84
2022/07/02 00:46:17;;;;;;;;;3.00;3.00;;;;;16.03;61.33;101603.56;5075318;28;45415;-81
2022/07/02 00:48:43;;;;;;;;;3.00;3.00;;;;;15.97;61.32;101585.75;5076887;28;45551;-81
2022/07/02 00:51:09;;;;;;;;;3.75;3.75;;;;;15.87;61.02;101562.50;5058241;28;45363;-81
2022/07/02 00:53:34;;;;;;;;;3.00;2.50;;;;;15.84;60.18;101562.41;5076651;28;46164;-82
2022/07/02 00:56:00;;;;;;;;;3.50;3.00;;;;;16.08;60.60;101601.03;5076224;28;45300;-84
2022/07/02 00:58:28;;;;;;;;;2.00;2.00;;;;;16.01;60.08;101589.41;5062868;28;45339;-81
2022/07/02 01:00:53;;;;;;;;;3.00;3.00;;;;;16.18;60.22;101611.03;5065984;28;45351;-83
2022/07/02 01:03:21;;;;;;;;;1.00;1.00;;;;;16.05;59.81;101579.75;5075995;28;51519;-85
2022/07/02 01:05:49;;;;;;;;;2.00;2.00;;;;;16.05;59.55;101574.44;5076199;28;45680;-85
2022/07/02 01:11:07;;;;;;;;;3.00;3.00;;;;;16.15;60.11;101593.25;5076006;28;45316;-82
2022/07/02 01:13:34;;;;;;;;;2.00;2.00;;;;;16.18;59.90;101608.38;5075414;28;46377;-80
2022/07/02 01:16:00;;;;;;;;;2.75;2.75;;;;;16.01;60.16;101600.00;5076393;28;45466;-85
2022/07/02 01:18:26;;;;;;;;;1.75;1.75;;;;;16.08;60.38;101614.31;5076359;28;45395;-84
2022/07/02 01:20:51;;;;;;;;;3.25;2.00;;;;;15.61;60.66;101545.88;5066420;28;45430;-80
2022/07/02 01:23:17;;;;;;;;;2.00;2.00;;;;;15.90;60.47;101606.75;5056754;28;46158;-83
2022/07/02 01:25:52;;;;;;;;;2.75;2.00;;;;;15.73;60.80;101585.09;5075717;28;45380;-81
2022/07/02 01:28:19;;;;;;;;;2.25;2.25;;;;;15.64;60.64;101575.16;5075533;28;45438;-84
2022/07/02 01:30:46;;;;;;;;;2.00;2.00;;;;;15.73;60.82;101593.06;5076273;28;45417;-84
2022/07/02 01:33:11;;;;;;;;;2.00;1.50;;;;;15.84;60.68;101617.19;5067384;28;45560;-84
2022/07/02 01:35:37;;;;;;;;;2.00;2.00;;;;;15.65;60.53;101576.03;5037360;28;45713;-83
2022/07/02 01:38:02;;;;;;;;;3.00;3.00;;;;;15.59;61.26;101582.03;5056282;28;45333;-84
2022/07/02 01:40:28;;;;;;;;;2.25;2.00;;;;;15.58;61.39;101589.97;5036901;28;45566;-81
2022/07/02 01:42:53;;;;;;;;;2.00;2.00;;;;;15.53;61.09;101586.28;5065152;27;46296;-80
2022/07/02 01:45:19;;;;;;;;;3.00;3.00;;;;;15.64;61.25;101612.25;5064965;28;45433;-84
2022/07/02 01:47:44;;;;;;;;;2.00;2.00;;;;;15.45;61.61;101578.09;5076173;28;45347;-84
2022/07/02 01:50:10;;;;;;;;;2.00;2.00;;;;;15.53;61.40;101589.81;5070303;28;45383;-82
2022/07/02 01:52:35;;;;;;;;;2.75;1.75;;;;;15.77;60.82;101621.44;5054629;28;45477;-84
2022/07/02 01:55:01;;;;;;;;;2.00;2.00;;;;;15.54;61.12;101574.81;5070065;28;45442;-81
2022/07/02 01:57:30;;;;;;;;;1.25;1.25;;;;;15.54;61.26;101582.78;5057706;28;45413;-81
2022/07/02 01:59:56;;;;;;;;;2.50;2.50;;;;;15.64;61.40;101606.06;5073779;28;45371;-81
2022/07/02 02:02:22;;;;;;;;;2.25;2.25;;;;;15.45;61.47;101579.00;5057184;28;47951;-82
2022/07/02 02:04:48;;;;;;;;;2.50;2.50;;;;;15.46;61.35;101582.53;5057072;28;45679;-79
2022/07/02 02:07:13;;;;;;;;;2.00;2.00;;;;;15.59;61.29;101599.69;5075372;28;45772;-83
2022/07/02 02:09:38;;;;;;;;;1.00;1.00;;;;;15.66;61.50;101625.53;5075475;28;45508;-80
2022/07/02 02:12:04;;;;;;;;;2.50;2.50;;;;;15.55;61.48;101604.00;5075627;28;45524;-84
2022/07/02 02:14:30;;;;;;;;;2.00;2.00;;;;;15.39;61.61;101581.50;5064810;28;46766;-84
2022/07/02 02:16:55;;;;;;;;;3.00;2.75;;;;;15.30;61.00;101553.84;5036956;28;45463;-84
2022/07/02 02:19:21;;;;;;;;;3.00;2.25;;;;;15.48;61.44;101594.09;5054903;28;45470;-82
2022/07/02 02:21:46;;;;;;;;;2.00;2.00;;;;;15.56;61.61;101610.19;5054285;28;46173;-84
2022/07/02 02:24:11;;;;;;;;;3.00;2.75;;;;;15.26;61.60;101562.53;5071401;28;45577;-84
2022/07/02 02:26:37;;;;;;;;;2.25;2.25;;;;;15.26;61.59;101574.03;5075567;28;45384;-82
2022/07/02 02:29:02;;;;;;;;;2.00;2.00;;;;;15.43;61.73;101604.56;5070239;28;45581;-81
2022/07/02 02:31:28;;;;;;;;;1.75;1.75;;;;;15.21;61.21;101567.72;5074792;28;46300;-84
2022/07/02 02:33:53;;;;;;;;;2.00;2.00;;;;;15.23;61.60;101555.44;5073819;28;45356;-81
2022/07/02 02:36:18;;;;;;;;;2.00;2.00;;;;;15.31;61.69;101569.75;5074573;28;49230;-83
2022/07/02 02:38:46;;;;;;;;;2.00;2.00;;;;;15.27;61.77;101570.56;5075103;28;45431;-82
2022/07/02 02:41:11;;;;;;;;;2.25;2.25;;;;;15.23;61.50;101573.97;5074829;28;46135;-80
2022/07/02 02:43:38;;;;;;;;;2.00;2.00;;;;;15.39;62.10;101607.97;5063132;28;46895;-82
2022/07/02 02:46:05;;;;;;;;;2.00;2.00;;;;;15.14;61.89;101568.41;5075134;28;45417;-81
2022/07/02 02:48:31;;;;;;;;;2.00;1.75;;;;;15.22;62.11;101588.97;5056539;28;45324;-81
2022/07/02 02:50:57;;;;;;;;;3.25;3.00;;;;;15.22;61.56;101590.69;5072530;28;46478;-84
2022/07/02 02:53:22;;;;;;;;;1.75;1.75;;;;;15.27;61.97;101594.41;5074399;28;45924;-83
2022/07/02 02:55:48;;;;;;;;;2.00;2.00;;;;;15.02;62.04;101560.97;5055240;28;45522;-84
2022/07/02 02:58:13;;;;;;;;;2.00;1.75;;;;;14.99;62.04;101558.25;5064999;28;45622;-84
2022/07/02 03:00:38;;;;;;;;;2.00;2.00;;;;;15.00;61.81;101573.28;5074423;28;45540;-84
2022/07/02 03:03:04;;;;;;;;;3.00;2.25;;;;;14.98;61.92;101576.75;5071876;28;45517;-83
2022/07/02 03:05:29;;;;;;;;;1.00;1.00;;;;;14.96;62.22;101584.63;5071788;28;45565;-84
2022/07/02 03:07:55;;;;;;;;;2.00;2.00;;;;;14.88;62.48;101579.13;5074557;28;45641;-82
2022/07/02 03:10:20;;;;;;;;;2.00;2.00;;;;;14.75;62.60;101576.94;5048320;28;47096;-84
2022/07/02 03:12:45;;;;;;;;;1.75;1.00;;;;;14.79;62.78;101585.88;5053917;28;45357;-84
2022/07/02 03:15:11;;;;;;;;;1.00;1.00;;;;;14.77;62.67;101585.81;5069001;28;46332;-82
2022/07/02 03:17:36;;;;;;;;;2.75;2.00;;;;;14.68;63.18;101582.91;5066481;28;45485;-81
2022/07/02 03:20:02;;;;;;;;;2.50;2.50;;;;;14.82;63.10;101604.47;5053864;28;45307;-84
2022/07/02 03:22:28;;;;;;;;;2.00;2.00;;;;;14.68;63.14;101588.19;5054083;28;45889;-81
2022/07/02 03:24:53;;;;;;;;;1.75;1.75;;;;;14.56;63.33;101574.56;5061090;28;45513;-83
2022/07/02 03:27:18;;;;;;;;;2.00;2.00;;;;;14.65;63.54;101591.63;5055939;28;45557;-83
2022/07/02 03:29:44;;;;;;;;;3.00;2.25;;;;;14.69;63.66;101601.47;5073677;28;45374;-80
2022/07/02 03:32:09;;;;;;;;;4.00;3.50;;;;;14.56;63.55;101587.78;5073943;28;45363;-82
2022/07/02 03:34:34;;;;;;;;;2.75;2.75;;;;;14.60;63.61;101589.69;5065413;28;45463;-81
2022/07/02 03:37:00;;;;;;;;;4.25;3.00;;;;;14.58;63.72;101591.38;5054037;28;45355;-83
2022/07/02 03:39:25;;;;;;;;;1.00;1.00;;;;;14.57;63.30;101593.13;5035699;28;46689;-84
2022/07/02 03:41:51;;;;;;;;;2.50;2.50;;;;;14.66;63.19;101595.16;5053854;28;45336;-85
2022/07/02 03:44:17;;;;;;;;;2.00;2.00;;;;;14.65;63.34;101583.69;5053771;28;45569;-81
2022/07/02 03:46:42;;;;;;;;;2.25;2.25;;;;;14.56;63.09;101569.28;5053788;28;45456;-81
2022/07/02 03:49:07;;;;;;;;;2.00;2.00;;;;;14.53;63.35;101563.88;5053798;28;46377;-83
2022/07/02 03:51:33;;;;;;;;;2.00;2.00;;;;;14.57;63.46;101573.72;5055569;28;45375;-84
2022/07/02 03:53:58;;;;;;;;;2.50;2.00;;;;;14.52;63.58;101570.03;5056597;28;45508;-81
2022/07/02 03:56:23;;;;;;;;;2.50;2.50;;;;;14.71;63.24;101601.50;5055583;28;45354;-81
2022/07/02 03:58:49;;;;;;;;;1.25;1.25;;;;;14.60;63.25;101573.81;5073284;28;45391;-81
2022/07/02 04:01:14;;;;;;;;;3.00;3.00;;;;;14.76;62.83;101607.84;5063010;28;45495;-83
2022/07/02 04:03:40;;;;;;;;;2.25;2.00;;;;;14.65;62.95;101582.78;5057192;28;45498;-82
2022/07/02 04:06:05;;;;;;;;;4.50;3.00;;;;;14.64;63.40;101581.00;5053460;28;45477;-80
2022/07/02 04:08:30;;;;;;;;;1.25;1.25;;;;;14.64;63.23;101581.00;5053295;28;45408;-81
2022/07/02 04:10:56;;;;;;;;;3.00;3.00;;;;;14.66;63.43;101582.84;5053465;28;45335;-83
2022/07/02 04:13:21;;;;;;;;;1.00;1.00;;;;;14.64;63.23;101587.19;5052865;28;45353;-81
2022/07/02 04:15:46;;;;;;;;;1.25;1.25;;;;;14.62;63.24;101587.97;5056317;28;45318;-81
2022/07/02 04:18:12;;;;;;;;;2.25;2.25;;;;;14.79;63.48;101615.88;5045222;28;47469;-84
2022/07/02 04:20:37;;;;;;;;;2.75;2.75;;;;;14.58;63.57;101580.78;5076994;28;45593;-81
2022/07/02 04:23:03;;;;;;;;;3.50;2.00;;;;;14.75;63.54;101616.63;5077117;28;45382;-84
2022/07/02 04:25:28;;;;;;;;;1.50;1.50;;;;;14.73;63.13;101609.47;5054762;28;45530;-84
2022/07/02 04:27:54;;;;;;;;;4.00;4.00;;;;;14.62;63.65;101585.34;5056669;28;45529;-85
2022/07/02 04:30:19;;;;;;;;;3.00;2.25;;;;;14.70;63.12;101597.06;5060631;28;45466;-81
2022/07/02 04:32:45;;;;;;;;;1.00;1.00;;;;;14.61;63.58;101579.16;5076860;28;45446;-81
2022/07/02 04:35:10;;;;;;;;;1.25;1.25;;;;;14.79;63.40;101604.41;5076244;28;45471;-83
2022/07/02 04:37:35;;;;;;;;;3.50;3.00;;;;;14.64;63.82;101568.66;5076402;28;45362;-83
2022/07/02 04:40:01;;;;;;;;;2.00;2.00;;;;;14.90;63.73;101614.47;5076902;28;45367;-81
2022/07/02 04:42:26;;;;;;;;;2.75;2.75;;;;;14.83;63.87;101596.59;5076539;28;45945;-84
2022/07/02 04:44:51;;;;;;;;;2.00;2.00;;;;;14.82;62.82;101593.88;5073252;28;45377;-80
2022/07/02 04:47:17;;;;;;;;;2.25;2.25;;;;;14.98;63.21;101616.47;5056141;28;45559;-84
2022/07/02 04:49:42;;;;;;;;;3.00;2.00;;;;;14.83;63.44;101586.03;5056806;28;45475;-84
2022/07/02 04:52:07;;;;;;;;;2.25;2.00;;;;;14.99;62.99;101594.44;5076261;28;45370;-81
2022/07/02 04:54:33;;;;;;;;;2.75;2.75;;;;;14.84;63.28;101573.69;5075625;28;45530;-83
2022/07/02 04:56:58;;;;;;;;;3.00;2.50;;;;;15.02;63.65;101597.13;5076311;28;45991;-81
2022/07/02 04:59:23;;;;;;;;;2.25;2.00;;;;;14.74;63.75;101547.78;5066978;28;45523;-83
2022/07/02 05:01:51;;;;;;;;;2.25;2.25;;;;;14.90;63.62;101574.75;5056141;28;45322;-82
2022/07/02 05:04:17;;;;;;;;;3.00;3.00;;;;;14.93;64.00;101564.28;5060731;28;45468;-84
2022/07/02 05:06:43;;;;;;;;;2.50;2.50;;;;;15.14;63.53;101594.88;5075706;28;46607;-80
2022/07/02 05:09:08;;;;;;;;;2.75;2.00;;;;;15.11;63.72;101584.19;5076222;28;45542;-82
2022/07/02 05:11:33;;;;;;;;;3.50;3.50;;;;;15.17;64.18;101585.28;5076455;28;45434;-85
2022/07/02 05:13:59;;;;;;;;;1.00;1.00;;;;;15.11;64.01;101569.19;5058178;28;45544;-82
2022/07/02 05:16:24;;;;;;;;;3.00;3.00;;;;;15.19;64.14;101574.72;5076570;28;46135;-84
2022/07/02 05:18:49;;;;;;;;;3.00;3.00;;;;;15.32;64.19;101590.13;5076210;28;45390;-84
2022/07/02 05:21:15;;;;;;;;;3.00;3.00;;;;;15.33;64.00;101578.66;5057224;28;45378;-83
2022/07/02 05:23:40;;;;;;;;;5.50;4.75;;;;;15.46;63.73;101598.44;5076227;28;45330;-81
2022/07/02 05:26:06;;;;;;;;;5.00;4.00;;;;;15.41;63.76;101569.16;5060585;28;45826;-85
2022/07/02 05:28:31;;;;;;;;;3.50;3.50;;;;;15.66;63.30;101609.63;5055208;28;45408;-82
2022/07/02 05:30:56;;;;;;;;;3.00;3.00;;;;;15.66;63.49;101599.03;5062181;28;45507;-84
2022/07/02 05:33:22;;;;;;;;;3.75;3.00;;;;;15.48;63.59;101559.66;5069571;28;45354;-87
2022/07/02 05:35:47;;;;;;;;;4.00;4.00;;;;;15.66;63.83;101583.13;5069494;28;45597;-83
2022/07/02 05:40:48;;;;;;;;;3.00;3.00;;;;;15.70;63.34;101577.06;5959206;22;46192;-80
2022/07/02 05:43:13;;;;;;;;;5.00;5.00;;;;;15.84;63.67;101586.28;5054312;28;45568;-80
2022/07/02 05:45:38;;;;;;;;;4.00;3.00;;;;;15.88;63.41;101595.22;5060518;28;45594;-88
2022/07/02 05:48:04;;;;;;;;;4.00;4.00;;;;;15.94;63.71;101595.38;5042520;28;45022;-82
2022/07/02 05:50:30;;;;;;;;;4.00;3.00;;;;;16.06;63.29;101600.09;5051483;28;44984;-80
2022/07/02 05:52:55;;;;;;;;;2.75;2.00;;;;;16.01;63.04;101589.41;5059459;28;45435;-90
2022/07/02 05:55:20;;;;;;;;;4.00;3.00;;;;;16.00;62.98;101575.22;5072386;28;45909;-80
2022/07/02 05:57:45;;;;;;;;;4.00;4.00;;;;;16.22;63.16;101608.50;5072898;28;45091;-84
2022/07/02 06:00:11;;;;;;;;;5.00;5.00;;;;;16.28;63.42;101606.84;5073010;28;44901;-80
2022/07/02 06:02:36;;;;;;;;;5.25;5.00;;;;;16.28;62.32;101593.59;5072620;28;45152;-86
2022/07/02 06:07:47;;;;;;;;;5.00;5.00;;;;;16.50;61.83;101607.44;5072663;28;45171;-80
2022/07/02 06:10:18;;;;;;;;;5.25;5.00;;;;;16.42;61.93;101579.81;5071981;28;45156;-83
2022/07/02 06:12:47;;;;;;;;;4.75;4.50;;;;;16.61;61.60;101597.06;5072204;28;45177;-82
2022/07/02 06:15:14;;;;;;;;;5.00;5.00;;;;;16.49;61.51;101564.91;5049496;28;47543;-80
2022/07/02 06:17:39;;;;;;;;;5.00;4.00;;;;;16.58;61.73;101570.44;5054105;28;45528;-86
2022/07/02 06:20:05;;;;;;;;;6.50;6.50;;;;;16.80;60.79;101601.09;5054233;28;45304;-82
2022/07/02 06:22:30;;;;;;;;;5.25;5.00;;;;;16.79;60.57;101599.25;5053293;28;45677;-84
2022/07/02 06:24:55;;;;;;;;;6.00;6.00;;;;;16.82;61.56;101587.84;5052995;28;47086;-81
2022/07/02 06:27:21;;;;;;;;;8.00;7.00;;;;;16.82;60.71;101578.09;5053781;28;45442;-82
2022/07/02 06:29:48;;;;;;;;;7.25;6.00;;;;;16.86;60.80;101574.66;5053809;28;45576;-81
2022/07/02 06:32:16;;;;;;;;;5.00;5.00;;;;;17.09;60.73;101599.03;5058907;28;45365;-82
2022/07/02 06:34:41;;;;;;;;;6.25;6.00;;;;;17.07;60.67;101576.88;5067229;28;45663;-80
2022/07/02 06:37:07;;;;;;;;;6.00;6.00;;;;;17.22;60.64;101590.47;5069605;28;45246;-81
2022/07/02 06:39:32;;;;;;;;;5.00;5.00;;;;;17.13;60.89;101562.81;5071088;28;45100;-81
2022/07/02 06:44:41;;;;;;;;;3.00;2.75;;;;;17.49;60.49;101597.25;5069033;28;45049;-82
2022/07/02 06:47:07;;;;;;;;;3.00;3.00;;;;;17.51;60.51;101595.50;5059436;28;45582;-82
2022/07/02 06:49:33;;;;;;;;;2.25;2.25;;;;;17.47;60.17;101575.03;5071575;28;45159;-81
2022/07/02 06:51:58;;;;;;;;;3.00;3.00;;;;;17.57;59.44;101581.44;5064052;28;45402;-80
2022/07/02 06:54:23;;;;;;;;;3.00;3.00;;;;;17.53;59.26;101572.50;5057036;28;46160;-80
2022/07/02 06:56:49;;;;;;;;;4.00;4.00;;;;;17.48;58.41;101545.81;5063798;28;45802;-82
2022/07/02 06:59:14;;;;;;;;;5.25;4.00;;;;;17.60;58.40;101557.56;5052869;28;45171;-79
2022/07/02 07:01:39;;;;;;;;;3.75;3.00;;;;;17.72;58.70;101571.97;5070485;28;45143;-83
2022/07/02 07:04:05;;;;;;;;;3.00;3.00;;;;;17.77;59.24;101570.34;5039899;28;46864;-82
2022/07/02 07:06:36;;;;;;;;;5.00;4.00;;;;;17.82;59.61;101570.41;5071459;28;50639;-79
2022/07/02 07:09:02;;;;;;;;;3.00;2.75;;;;;17.85;59.33;101564.28;5070865;28;45053;-81
2022/07/02 07:11:27;;;;;;;;;3.25;2.25;;;;;18.01;59.35;101575.19;5070922;28;45190;-81
2022/07/02 07:13:53;;;;;;;;;3.75;3.00;;;;;18.08;59.23;101572.63;5053181;28;47296;-80
2022/07/02 07:16:18;;;;;;;;;0.50;0.50;;;;;18.10;58.53;101571.81;5071000;28;45274;-82
2022/07/02 07:18:47;;;;;;;;;4.00;3.50;;;;;18.23;58.58;101578.25;5071274;28;44905;-82
2022/07/02 07:21:13;;;;;;;;;3.75;2.50;;;;;18.14;58.49;101549.72;5070993;28;45170;-80
2022/07/02 07:23:38;;;;;;;;;1.25;0.50;;;;;18.33;58.18;101573.97;5066103;28;45513;-81
2022/07/02 07:26:04;;;;;;;;;1.50;1.50;;;;;18.46;58.42;101570.59;5059463;28;45026;-82
2022/07/02 07:28:29;;;;;;;;;1.25;0.75;;;;;18.34;58.07;101552.69;5071310;28;45196;-81
2022/07/02 07:30:55;;;;;;;;;1.75;1.50;;;;;18.39;57.69;101544.78;5070661;28;45165;-82
2022/07/02 07:33:20;;;;;;;;;3.00;2.50;;;;;18.56;57.54;101570.75;5070450;28;46011;-81
2022/07/02 07:35:45;;;;;;;;;2.00;1.50;;;;;18.66;57.42;101571.78;5069648;28;45098;-80
2022/07/02 07:38:11;;;;;;;;;1.50;1.50;;;;;18.58;57.52;101546.84;5070702;28;45236;-80
2022/07/02 07:40:37;;;;;;;;;1.00;1.00;;;;;18.66;56.95;101538.94;5069182;28;45131;-79
2022/07/02 07:43:03;;;;;;;;;2.50;2.50;;;;;18.73;57.05;101546.22;5070099;28;45467;-80
2022/07/02 07:45:28;;;;;;;;;1.75;1.75;;;;;18.83;56.53;101552.56;5069561;28;45763;-80
2022/07/02 07:47:54;;;;;;;;;1.00;1.00;;;;;18.97;56.14;101566.97;5070923;28;45025;-82
2022/07/02 07:50:19;;;;;;;;;1.75;1.75;;;;;18.87;56.35;101547.28;5057605;28;45373;-82
2022/07/02 07:52:45;;;;;;;;;1.50;1.00;;;;;18.97;56.12;101546.53;5056491;28;45487;-80
2022/07/02 07:55:10;;;;;;;;;0.75;0.75;;;;;18.99;55.95;101542.13;5056404;28;45382;-81
2022/07/02 07:57:36;;;;;;;;;1.50;1.00;;;;;19.07;55.45;101548.44;5057184;28;45412;-84
2022/07/02 08:00:04;;;;;;;;;1.50;1.50;;;;;19.26;54.82;101570.88;5057156;28;45315;-83
2022/07/02 08:02:29;;;;;;;;;0.75;0.75;;;;;19.27;55.23;101555.78;5068337;28;45469;-81
2022/07/02 08:04:55;;;;;;;;;0.00;0.00;;;;;19.20;54.13;101541.47;5073887;28;45117;-83
2022/07/02 08:07:20;;;;;;;;;0.00;0.00;;;;;19.25;54.62;101541.53;5074531;28;44829;-80
2022/07/02 08:09:52;;;;;;;;;1.00;0.75;;;;;19.36;54.79;101553.25;5074052;28;44940;-81
2022/07/02 08:12:18;;;;;;;;;2.00;2.00;;;;;19.26;53.24;101525.56;5074015;28;45347;-81
2022/07/02 08:14:44;;;;;;;;;2.00;2.00;;;;;19.34;54.30;101529.19;5074097;28;44991;-81
2022/07/02 08:17:09;;;;;;;;;1.00;1.00;;;;;19.38;53.85;101529.25;5074721;28;44918;-83
2022/07/02 08:19:34;;;;;;;;;1.25;1.25;;;;;19.36;53.18;101515.00;5068198;28;45241;-79
2022/07/02 08:22:00;;;;;;;;;3.00;2.75;;;;;19.45;53.46;101534.66;5051731;28;46862;-82
2022/07/02 08:24:25;;;;;;;;;2.00;2.00;;;;;19.63;53.51;101546.44;5055884;28;45557;-83
2022/07/02 08:26:50;;;;;;;;;1.00;1.00;;;;;19.62;53.60;101540.22;5056709;28;45670;-83
2022/07/02 08:29:16;;;;;;;;;1.00;1.00;;;;;19.68;53.06;101544.72;5056442;28;45511;-82
2022/07/02 08:31:41;;;;;;;;;1.25;1.00;;;;;19.51;52.93;101516.06;5055893;28;45535;-84
2022/07/02 08:34:06;;;;;;;;;2.25;2.25;;;;;19.78;53.36;101549.25;5056415;28;45593;-84
2022/07/02 08:36:32;;;;;;;;;1.00;1.00;;;;;19.76;53.62;101524.34;5055854;28;45437;-85
2022/07/02 08:38:57;;;;;;;;;2.00;1.75;;;;;19.77;53.13;101523.47;5056171;28;45291;-79
2022/07/02 08:41:23;;;;;;;;;1.00;1.00;;;;;19.84;53.14;101527.97;5056300;28;45435;-82
2022/07/02 08:43:53;;;;;;;;;2.00;2.00;;;;;20.05;51.73;101553.97;5056305;28;45524;-82
2022/07/02 08:46:19;;;;;;;;;1.00;1.00;;;;;19.91;51.00;101524.47;5056965;28;45473;-85
2022/07/02 08:48:46;;;;;;;;;1.25;1.25;;;;;20.08;51.58;101537.97;5056978;28;45417;-85
2022/07/02 08:51:14;;;;;;;;;1.00;1.00;;;;;20.10;51.84;101537.09;5038443;28;47402;-81
2022/07/02 08:53:41;;;;;;;;;1.00;1.00;;;;;20.20;52.68;101545.19;5055419;28;45879;-82
2022/07/02 08:56:08;;;;;;;;;0.75;0.75;;;;;20.03;52.26;101511.22;5055484;28;45280;-83
2022/07/02 08:58:34;;;;;;;;;1.00;1.00;;;;;20.17;50.41;101518.47;5055419;28;45280;-79
2022/07/02 09:01:00;;;;;;;;;0.25;0.25;;;;;20.29;50.25;101532.78;5054861;28;45499;-81
2022/07/02 09:03:27;;;;;;;;;1.25;1.00;;;;;20.26;49.89;101519.44;5054634;28;45396;-79
2022/07/02 09:05:54;;;;;;;;;1.00;0.75;;;;;20.34;49.06;101516.78;5055282;28;45562;-83
2022/07/02 09:08:22;;;;;;;;;0.50;0.50;;;;;20.52;48.48;101541.00;5055416;28;45526;-81
2022/07/02 09:10:50;;;;;;;;;1.00;0.50;;;;;20.56;49.45;101540.13;5055014;28;45595;-82
2022/07/02 09:13:17;;;;;;;;;0.00;0.00;;;;;20.45;48.08;101517.78;5055428;28;45587;-80
2022/07/02 09:15:43;;;;;;;;;111.50;102.00;;;;;20.47;48.45;101508.03;5054700;28;45418;-81
2022/07/02 09:18:08;;;;;;;;;87.25;75.25;;;;;20.45;48.71;101504.44;5053665;28;45456;-80
2022/07/02 09:20:34;;;;;;;;;1.75;1.75;;;;;20.56;47.07;101510.75;5051187;28;47285;-78
2022/07/02 09:22:59;;;;;;;;;3.00;3.00;;;;;20.65;47.20;101515.25;5038249;28;49119;-83
2022/07/02 09:25:27;;;;;;;;;2.00;1.25;;;;;20.78;47.28;101527.78;5056325;28;45660;-82
2022/07/02 09:28:03;;;;;;;;;82.50;75.25;;;;;20.83;48.09;101525.13;5054848;28;45597;-81
2022/07/02 09:30:36;;;;;;;;;3.50;3.00;;;;;20.70;46.99;101496.59;5055601;28;45448;-79
2022/07/02 09:35:46;;;;;;;;;59.50;49.00;;;;;20.84;47.48;101495.75;5054285;28;45449;-79
2022/07/02 09:38:12;;;;;;;;;0.00;0.00;;;;;20.77;46.48;101467.22;5038335;28;45307;-80
2022/07/02 09:40:59;;;;;;;;;43.75;36.50;;;;;21.02;46.91;101492.25;5040427;28;46436;-81
2022/07/02 09:43:30;;;;;;;;;12.00;11.25;;;;;21.03;46.41;101487.81;5054865;28;45952;-80
2022/07/02 09:45:57;;;;;;;;;1.00;1.00;;;;;21.13;46.14;101502.97;5054771;28;45499;-81
2022/07/02 09:48:22;;;;;;;;;7.00;5.50;;;;;21.17;46.51;101501.22;5054292;28;45490;-80
2022/07/02 09:50:48;;;;;;;;;1.50;1.00;;;;;21.22;45.50;101496.78;5051392;28;45327;-82
2022/07/02 09:53:15;;;;;;;;;10.50;9.25;;;;;21.18;44.80;101492.31;5060042;28;45095;-80
2022/07/02 09:55:40;;;;;;;;;1.00;1.00;;;;;21.25;44.46;101484.31;5071570;28;45155;-81
2022/07/02 09:58:06;;;;;;;;;4.25;4.25;;;;;21.16;44.48;101462.91;5072057;28;45282;-81
2022/07/02 10:00:41;;;;;;;;;2.25;2.25;;;;;21.38;45.08;101499.53;5070781;28;45866;-80
2022/07/02 10:03:07;;;;;;;;;1.00;1.00;;;;;21.38;45.24;101479.94;5072297;28;45121;-81
2022/07/02 10:05:33;;;;;;;;;1.00;1.00;;;;;21.62;44.41;101500.44;5071972;28;45120;-82
2022/07/02 10:08:01;;;;;;;;;8.00;7.25;;;;;21.66;43.72;101487.97;5071329;28;44902;-81
2022/07/02 10:10:40;;;;;;;;;1.25;1.25;;;;;21.63;43.77;101471.03;5066594;28;45628;-80
2022/07/02 10:13:07;;;;;;;;;1.00;1.00;;;;;21.76;43.63;101484.41;5066216;28;45949;-81
2022/07/02 10:15:37;;;;;;;;;0.75;0.75;;;;;21.65;42.99;101457.66;5060774;28;45534;-81
2022/07/02 10:18:03;;;;;;;;;2.00;1.25;;;;;21.68;42.98;101452.31;5062633;28;45295;-81
2022/07/02 10:20:30;;;;;;;;;2.00;2.00;;;;;21.72;43.13;101448.72;5065771;28;45435;-80
2022/07/02 10:23:01;;;;;;;;;171.50;158.00;;;;;22.01;44.02;101480.84;5066230;28;45506;-80
2022/07/02 10:25:27;;;;;;;;;1.00;1.00;;;;;21.94;43.31;101463.00;5053418;28;45418;-79
2022/07/02 10:27:55;;;;;;;;;2.00;1.50;;;;;22.03;42.86;101462.13;5053404;28;45523;-80
2022/07/02 10:30:21;;;;;;;;;2.00;1.00;;;;;21.85;42.83;101423.75;5035071;28;47313;-80
2022/07/02 10:32:58;;;;;;;;;1.50;1.50;;;;;22.19;43.12;101484.44;5053720;28;45764;-80
2022/07/02 10:35:23;;;;;;;;;23.50;22.75;;;;;22.08;42.88;101447.84;5054047;28;45598;-81
2022/07/02 10:37:56;;;;;;;;;7.50;7.50;;;;;22.00;43.07;101413.94;5053670;28;45422;-80
2022/07/02 10:40:21;;;;;;;;;19.00;19.00;;;;;22.28;43.94;101457.66;5053042;28;45614;-80
2022/07/02 10:42:49;;;;;;;;;2.00;2.00;;;;;22.43;42.95;101470.13;5034999;28;45475;-80
2022/07/02 10:45:16;;;;;;;;;10.75;10.25;;;;;22.47;43.36;101469.22;5051827;28;45296;-80
2022/07/02 10:48:14;;;;;;;;;7.25;7.25;;;;;22.53;43.67;101462.03;5046597;28;45542;-81
2022/07/02 10:50:40;;;;;;;;;1.50;0.50;;;;;22.58;42.80;101454.88;4988339;28;46440;-81
2022/07/02 10:53:17;;;;;;;;;1.00;1.00;;;;;22.62;42.87;101459.34;5015642;28;45512;-80
2022/07/02 10:55:55;;;;;;;;;4.00;3.00;;;;;22.45;42.53;101412.94;5033249;28;45522;-80
2022/07/02 10:58:24;;;;;;;;;23.75;23.25;;;;;22.74;42.65;101457.50;5033704;28;45295;-80
2022/07/02 11:00:51;;;;;;;;;6.75;6.75;;;;;22.76;41.92;101439.59;5033311;28;45391;-81
2022/07/02 11:03:24;;;;;;;;;10.50;9.50;;;;;22.93;42.65;101451.19;5033432;28;45612;-81
2022/07/02 11:05:59;;;;;;;;;5.25;5.25;;;;;23.02;41.59;101459.19;5033563;28;45439;-81
2022/07/02 11:08:46;;;;;;;;;9.50;8.50;;;;;23.13;41.76;101461.81;5039572;28;45806;-81
2022/07/02 11:11:17;;;;;;;;;7.75;7.00;;;;;23.18;41.10;101460.88;5053444;28;46232;-81
2022/07/02 11:13:42;;;;;;;;;17.00;16.00;;;;;23.25;41.00;101458.16;5035292;28;46147;-82
2022/07/02 11:16:47;;;;;;;;;2.00;2.00;;;;;23.29;40.08;101452.75;5035332;28;45387;-81
2022/07/02 11:19:24;;;;;;;;;1.00;1.00;;;;;23.31;39.87;101455.44;4985245;28;45514;-81
2022/07/02 11:21:53;;;;;;;;;1.25;1.25;;;;;23.27;39.83;101434.91;5051687;28;45488;-82
2022/07/02 11:24:22;;;;;;;;;3.00;3.00;;;;;23.24;40.19;101413.47;5051856;28;45928;-83
2022/07/02 11:26:47;;;;;;;;;45.75;36.00;;;;;23.47;39.65;101450.88;5053248;28;45588;-82
2022/07/02 11:29:14;;;;;;;;;3.00;3.00;;;;;23.46;39.74;101443.72;5052955;28;46763;-81
2022/07/02 11:31:46;;;;;;;;;21.50;21.50;;;;;23.49;40.41;101443.69;5033642;28;48681;-82
2022/07/02 11:34:13;;;;;;;;;77.75;64.25;;;;;23.54;40.90;101436.47;5053047;28;45975;-80
2022/07/02 11:36:38;;;;;;;;;14.00;12.25;;;;;23.39;40.70;101406.19;5052341;28;45574;-82